Wapello, Idaho
Current Conditions -  °F | °C
As of 8:53 AM on Sunday 21 Dec 2014 (Local Time) from KIDA Reporting Station
Overcast Overcast  
Wind Chill: 32°   Ceiling: 800
Heat Index: 41°   Visibility: 10mi
Dew Point: 38°   Wind: 21mph
Humidity: 89%   Direction: 230°SW
Pressure: 29.72"   Gusts: 32mph
Location:  43.2718°N, 112.405°W
Report Text: KIDA 211553Z 23018G28KT 10SM OVC008 05/03 A2972 RMK AO2 PK WND 23034/1500 SLP068 T00500033
Loading
Personal Weather Stations






























Interactive Weather Map New forecast layout! Learn more

10-Day Weather Forecast

Advertisements
Track Severe Weather on mobile